Time;durP1;ratioP1;P1;durP2;ratioP2;P2;SDS_P1;SDS_P2;PMS_P1;PMS_P2;Temp;Humidity;BMP_temperature;BMP_pressure;BME280_temperature;BME280_humidity;BME280_pressure;Samples;Min_cycle;Max_cycle;Signal;HPM_P1;HPM_P2
2023/07/30 00:00:00;;;;;;;2.20;1.90;;;;;;;17.31;76.90;98405.58;109411;1254;62262;-22
2023/07/30 00:02:27;;;;;;;4.10;2.30;;;;;;;17.07;77.44;98401.13;109288;1253;72679;-22
2023/07/30 00:04:55;;;;;;;2.60;2.20;;;;;;;16.85;77.91;98405.23;109372;1256;76377;-22
2023/07/30 00:07:23;;;;;;;3.90;1.50;;;;;;;16.67;78.37;98405.36;109373;1255;72793;-22
2023/07/30 00:09:51;;;;;;;2.00;1.50;;;;;;;17.01;78.37;98407.27;109224;1254;61403;-22
2023/07/30 00:12:18;;;;;;;3.00;1.70;;;;;;;17.43;76.89;98406.08;109408;1254;62618;-22
2023/07/30 00:14:46;;;;;;;3.80;2.00;;;;;;;17.44;76.34;98403.88;109244;1254;75720;-22
2023/07/30 00:17:14;;;;;;;2.90;2.00;;;;;;;17.25;76.21;98401.78;109398;1254;77706;-22
2023/07/30 00:19:42;;;;;;;2.80;2.00;;;;;;;17.00;76.57;98400.91;109396;1254;76182;-22
2023/07/30 00:22:09;;;;;;;3.90;2.10;;;;;;;16.73;77.21;98397.02;109228;1254;62155;-22
2023/07/30 00:24:37;;;;;;;1.70;1.60;;;;;;;16.49;78.17;98392.39;109376;1254;62734;-22
2023/07/30 00:27:05;;;;;;;3.10;1.80;;;;;;;16.80;78.70;98391.52;109400;1254;74808;-22
2023/07/30 00:29:33;;;;;;;2.50;1.60;;;;;;;17.21;77.15;98396.00;109357;1256;76361;-22
2023/07/30 00:32:01;;;;;;;3.40;2.10;;;;;;;17.21;76.57;98395.64;109330;1254;72746;-22
2023/07/30 00:34:29;;;;;;;4.60;2.00;;;;;;;17.01;76.64;98395.10;109321;1254;62066;-22
2023/07/30 00:36:56;;;;;;;5.30;2.60;;;;;;;16.77;77.13;98400.19;109204;1254;62419;-22
2023/07/30 00:39:24;;;;;;;3.80;2.70;;;;;;;16.52;78.06;98398.41;109332;1254;77348;-22
2023/07/30 00:41:52;;;;;;;3.20;1.70;;;;;;;16.32;79.20;98396.09;109192;1254;77193;-22
2023/07/30 00:44:20;;;;;;;2.90;2.00;;;;;;;16.73;79.83;98392.48;109156;1254;74396;-22
2023/07/30 00:46:48;;;;;;;3.70;2.30;;;;;;;17.23;78.76;98391.73;109281;1254;62493;-22
2023/07/30 00:49:15;;;;;;;4.20;2.50;;;;;;;17.31;77.87;98394.07;109152;1254;60253;-22
2023/07/30 00:51:43;;;;;;;4.10;2.30;;;;;;;17.19;77.56;98392.16;109192;1254;74806;-22
2023/07/30 00:54:12;;;;;;;4.60;2.50;;;;;;;16.99;77.89;98391.46;109204;1254;75290;-22
2023/07/30 00:56:41;;;;;;;3.90;3.10;;;;;;;16.79;78.21;98388.27;109305;1254;74839;-22
2023/07/30 00:59:09;;;;;;;4.10;2.10;;;;;;;16.60;78.93;98387.25;109105;1254;63992;-22
2023/07/30 01:01:36;;;;;;;3.80;2.50;;;;;;;17.00;79.18;98386.95;109350;1254;60945;-22
2023/07/30 01:04:04;;;;;;;5.40;3.20;;;;;;;17.48;77.36;98382.70;109176;1254;72640;-22
2023/07/30 01:06:33;;;;;;;5.80;3.50;;;;;;;17.51;76.73;98377.75;109363;1254;75256;-22
2023/07/30 01:09:01;;;;;;;6.20;3.90;;;;;;;17.33;76.64;98376.95;109196;1254;72750;-22
2023/07/30 01:11:28;;;;;;;4.70;3.30;;;;;;;17.08;76.79;98383.26;109162;1254;60918;-22
2023/07/30 01:13:56;;;;;;;3.50;2.70;;;;;;;16.79;77.42;98387.54;109168;1254;60851;-22
2023/07/30 01:16:24;;;;;;;2.30;1.80;;;;;;;16.54;78.56;98385.66;109235;1253;73904;-22
2023/07/30 01:18:52;;;;;;;2.50;1.90;;;;;;;16.88;78.57;98378.77;109217;1254;77924;-22
2023/07/30 01:21:19;;;;;;;2.30;1.70;;;;;;;17.29;76.85;98375.81;109169;1254;74956;-22
2023/07/30 01:23:47;;;;;;;3.50;3.00;;;;;;;17.28;76.47;98373.73;109174;1255;61372;-22
2023/07/30 01:26:23;;;;;;;5.40;3.70;;;;;;;17.09;77.30;98371.29;109361;1254;62075;-22
2023/07/30 01:28:53;;;;;;;4.60;3.60;;;;;;;16.81;77.97;98368.44;109133;1254;77270;-22
2023/07/30 01:31:21;;;;;;;5.90;4.20;;;;;;;16.58;78.81;98367.77;109088;1256;76604;-22
2023/07/30 01:33:49;;;;;;;5.30;2.90;;;;;;;16.43;79.30;98361.41;109118;1256;76239;-22
2023/07/30 01:36:16;;;;;;;4.30;3.30;;;;;;;16.86;79.68;98356.41;109261;1256;62115;-22
2023/07/30 01:38:44;;;;;;;6.90;3.30;;;;;;;17.38;77.97;98353.97;109276;1256;63324;-22
2023/07/30 01:41:12;;;;;;;6.40;3.90;;;;;;;17.45;77.30;98355.53;109142;1257;75859;-22
2023/07/30 01:43:40;;;;;;;5.00;3.90;;;;;;;17.33;77.22;98357.11;109161;1256;76327;-22
2023/07/30 01:46:08;;;;;;;5.70;2.90;;;;;;;17.19;77.49;98354.77;109142;1256;75532;-22
2023/07/30 01:48:36;;;;;;;7.40;3.00;;;;;;;17.04;77.39;98359.21;109134;1256;60321;-22
2023/07/30 01:51:04;;;;;;;5.60;3.40;;;;;;;16.87;77.68;98354.75;109323;1256;63436;-22
2023/07/30 01:53:31;;;;;;;5.20;3.50;;;;;;;16.72;78.31;98354.49;109165;1255;75769;-22
2023/07/30 01:55:59;;;;;;;10.60;6.00;;;;;;;17.22;78.31;98353.40;109179;1255;76148;-22
2023/07/30 01:58:27;;;;;;;8.60;5.20;;;;;;;17.77;76.51;98351.27;109283;1256;76270;-22
2023/07/30 02:00:55;;;;;;;9.90;5.30;;;;;;;17.82;75.34;98351.92;109136;1257;62104;-22
2023/07/30 02:03:23;;;;;;;7.20;4.30;;;;;;;17.64;75.89;98353.73;109300;1256;60708;-22
2023/07/30 02:05:51;;;;;;;5.60;4.10;;;;;;;17.41;76.52;98359.83;109185;1256;76274;-22
2023/07/30 02:08:19;;;;;;;6.10;3.60;;;;;;;17.17;77.13;98355.73;109344;1255;74415;-22
2023/07/30 02:10:57;;;;;;;4.30;3.50;;;;;;;16.96;78.18;98359.08;109292;1256;76178;-22
2023/07/30 02:13:25;;;;;;;3.50;2.30;;;;;;;16.85;78.96;98363.55;109126;1256;65573;-22
2023/07/30 02:15:53;;;;;;;4.80;2.80;;;;;;;17.38;78.97;98363.55;109153;1256;58829;-22
2023/07/30 02:18:21;;;;;;;4.20;2.50;;;;;;;17.97;77.43;98365.43;109270;1255;74823;-22
2023/07/30 02:20:50;;;;;;;5.00;2.70;;;;;;;18.12;76.21;98362.48;109328;1255;74493;-22
2023/07/30 02:23:18;;;;;;;4.70;2.60;;;;;;;18.03;75.96;98361.16;109314;1255;72747;-22
2023/07/30 02:25:46;;;;;;;5.20;3.60;;;;;;;17.83;76.01;98363.40;109136;1256;63477;-22
2023/07/30 02:28:13;;;;;;;3.40;2.60;;;;;;;17.64;76.89;98364.72;109293;1256;61340;-22
2023/07/30 02:30:42;;;;;;;6.10;4.80;;;;;;;17.47;77.32;98365.35;109266;1256;75941;-22
2023/07/30 02:33:10;;;;;;;5.70;3.90;;;;;;;17.37;77.50;98364.16;109112;1256;78090;-22
2023/07/30 02:35:38;;;;;;;10.70;7.20;;;;;;;17.85;77.44;98357.52;109092;1257;75248;-22
2023/07/30 02:38:05;;;;;;;13.00;7.00;;;;;;;18.38;75.87;98356.69;109124;1257;58840;-22
2023/07/30 02:40:33;;;;;;;12.60;7.00;;;;;;;18.47;74.82;98367.06;109148;1256;58798;-22
2023/07/30 02:43:01;;;;;;;7.60;5.10;;;;;;;18.13;75.18;98378.34;109108;1256;75886;-22
2023/07/30 02:45:30;;;;;;;7.40;4.10;;;;;;;17.64;77.25;98395.61;109141;1256;76840;-22
2023/07/30 02:47:58;;;;;;;6.10;2.70;;;;;;;17.04;79.95;98401.45;109079;1257;76200;-22
2023/07/30 02:50:26;;;;;;;2.20;1.80;;;;;;;16.91;81.56;98389.45;109023;1257;63557;-22
2023/07/30 02:52:54;;;;;;;2.40;1.80;;;;;;;17.61;80.48;98383.23;109102;1257;62386;-22
2023/07/30 02:55:22;;;;;;;2.70;2.00;;;;;;;18.26;78.01;98379.65;109116;1259;75745;-22
2023/07/30 02:57:50;;;;;;;2.20;1.80;;;;;;;18.33;77.21;98382.18;109136;1256;74425;-23
2023/07/30 03:00:18;;;;;;;3.20;1.80;;;;;;;18.10;78.02;98377.55;109102;1257;75020;-22
2023/07/30 03:02:46;;;;;;;3.40;2.20;;;;;;;17.96;78.79;98365.41;109031;1257;63424;-22
2023/07/30 03:05:14;;;;;;;3.50;2.20;;;;;;;17.80;78.97;98359.03;109079;1259;62411;-22
2023/07/30 03:07:44;;;;;;;3.80;2.00;;;;;;;17.62;79.70;98356.09;109134;1256;75566;-22
2023/07/30 03:10:11;;;;;;;2.20;1.60;;;;;;;18.04;79.51;98350.78;109164;1257;74436;-22
2023/07/30 03:12:39;;;;;;;2.80;2.10;;;;;;;18.50;77.79;98341.86;109092;1257;76200;-22
2023/07/30 03:15:08;;;;;;;4.20;2.10;;;;;;;18.49;77.07;98340.13;109058;1256;63550;-22
2023/07/30 03:17:36;;;;;;;3.60;2.10;;;;;;;18.30;77.56;98336.30;109072;1256;63397;-22
2023/07/30 03:20:04;;;;;;;6.00;3.20;;;;;;;18.06;78.52;98336.16;109160;1257;72020;-22
2023/07/30 03:22:32;;;;;;;3.30;2.30;;;;;;;17.84;79.62;98331.11;109113;1256;76700;-22
2023/07/30 03:25:00;;;;;;;2.20;1.60;;;;;;;17.68;80.54;98323.40;109089;1255;73559;-22
2023/07/30 03:27:28;;;;;;;7.80;1.70;;;;;;;18.15;80.82;98318.41;109073;1257;62156;-22
2023/07/30 03:29:58;;;;;;;4.80;1.80;;;;;;;18.65;79.03;98309.17;109120;1256;58792;-22
2023/07/30 03:32:27;;;;;;;2.90;2.10;;;;;;;18.72;78.41;98308.64;109015;1257;75781;-22
2023/07/30 03:34:58;;;;;;;2.90;2.00;;;;;;;18.55;78.54;98305.84;109072;1256;76570;-22
2023/07/30 03:37:28;;;;;;;3.40;2.60;;;;;;;18.35;79.19;98306.95;108975;1257;76218;-22
2023/07/30 03:39:58;;;;;;;9.30;4.20;;;;;;;18.17;80.04;98315.67;108992;1257;62115;-22
2023/07/30 03:42:28;;;;;;;3.60;3.10;;;;;;;18.05;80.85;98318.19;109001;1257;62057;-22
2023/07/30 03:44:58;;;;;;;4.70;3.50;;;;;;;18.55;80.73;98316.05;108993;1260;73915;-22
2023/07/30 03:47:28;;;;;;;6.10;4.40;;;;;;;19.09;78.83;98316.84;108993;1256;73309;-22
2023/07/30 03:50:00;;;;;;;5.50;3.00;;;;;;;19.18;77.99;98325.67;109084;1257;76231;-22
2023/07/30 03:52:31;;;;;;;3.10;2.50;;;;;;;19.03;77.98;98333.74;108969;1257;61934;-22
2023/07/30 03:55:01;;;;;;;4.20;2.30;;;;;;;18.80;78.49;98340.89;108992;1256;61137;-22
2023/07/30 03:57:31;;;;;;;2.50;2.00;;;;;;;18.56;79.70;98340.68;109106;1257;76604;-22
2023/07/30 04:00:05;;;;;;;1.60;1.40;;;;;;;18.45;80.50;98343.33;108984;1256;76667;-22
2023/07/30 04:02:42;;;;;;;2.80;1.50;;;;;;;18.99;80.08;98345.04;109001;1257;75050;-22
2023/07/30 04:05:13;;;;;;;3.80;2.00;;;;;;;19.43;78.63;98346.45;108995;1257;60236;-22
2023/07/30 04:07:43;;;;;;;2.90;1.70;;;;;;;19.42;78.13;98337.59;109011;1257;61148;-22
2023/07/30 04:10:13;;;;;;;3.10;1.90;;;;;;;19.27;78.69;98341.86;108985;1257;75831;-22
2023/07/30 04:12:45;;;;;;;2.90;2.00;;;;;;;19.03;79.50;98347.17;109025;1257;75200;-22
2023/07/30 04:15:17;;;;;;;2.90;2.00;;;;;;;18.67;80.94;98351.70;109110;1257;76045;-22
2023/07/30 04:17:48;;;;;;;2.50;1.50;;;;;;;18.46;81.36;98366.63;109000;1257;61798;-22
2023/07/30 04:20:18;;;;;;;5.10;2.30;;;;;;;18.77;81.94;98361.45;109044;1257;58919;-22
2023/07/30 04:22:50;;;;;;;3.90;1.70;;;;;;;19.05;81.04;98362.70;109125;1257;73921;-22
2023/07/30 04:25:19;;;;;;;2.10;1.70;;;;;;;19.03;80.89;98358.09;108993;1257;76356;-22
2023/07/30 04:27:50;;;;;;;3.30;2.20;;;;;;;18.84;80.94;98354.25;109042;1257;76221;-22
2023/07/30 04:37:54;;;;;;;3.50;1.70;;;;;;;19.67;80.63;98337.71;102633;1293;600290;-22
2023/07/30 04:40:22;;;;;;;5.90;1.90;;;;;;;19.76;79.34;98341.50;104832;1280;61605;-22
2023/07/30 04:42:50;;;;;;;3.30;1.90;;;;;;;19.57;79.20;98340.21;104745;1267;61190;-22
2023/07/30 04:45:18;;;;;;;3.30;2.60;;;;;;;19.34;79.76;98333.88;104754;1273;74742;-22
2023/07/30 04:47:48;;;;;;;5.00;3.00;;;;;;;19.05;80.81;98327.86;104844;1272;75840;-22
2023/07/30 04:50:16;;;;;;;4.80;1.70;;;;;;;18.83;82.19;98326.77;104783;1272;76672;-23
2023/07/30 04:52:44;;;;;;;2.50;1.70;;;;;;;19.31;82.75;98327.89;102671;1272;61205;-22
2023/07/30 04:55:11;;;;;;;3.70;2.00;;;;;;;19.84;80.57;98325.42;104745;1271;61213;-22
2023/07/30 04:57:40;;;;;;;4.00;2.10;;;;;;;19.91;79.69;98322.42;104899;1269;73199;-22
2023/07/30 05:00:08;;;;;;;2.50;2.00;;;;;;;19.79;79.62;98325.58;104802;1271;74549;-22
2023/07/30 05:02:36;;;;;;;2.70;2.50;;;;;;;19.60;80.32;98322.06;104764;1273;76939;-22
2023/07/30 05:05:05;;;;;;;5.10;2.70;;;;;;;19.42;81.22;98324.60;105388;1264;63122;-22
2023/07/30 05:07:32;;;;;;;3.50;3.00;;;;;;;19.79;81.84;98324.11;105325;1257;61462;-22
2023/07/30 05:10:00;;;;;;;3.90;3.10;;;;;;;20.24;79.84;98320.88;105391;1263;71901;-22
2023/07/30 05:12:28;;;;;;;2.90;2.30;;;;;;;20.21;79.24;98316.77;105605;1262;75706;-22
2023/07/30 05:14:56;;;;;;;3.90;2.70;;;;;;;19.98;79.79;98316.41;105200;1264;72724;-22
2023/07/30 05:17:24;;;;;;;4.50;3.20;;;;;;;19.76;80.47;98319.27;105466;1260;61183;-22
2023/07/30 05:19:51;;;;;;;3.10;2.10;;;;;;;19.62;81.72;98317.20;105494;1263;61395;-21
2023/07/30 05:22:19;;;;;;;4.10;2.30;;;;;;;20.02;81.66;98313.71;105420;1264;73093;-22
2023/07/30 05:24:47;;;;;;;3.00;2.00;;;;;;;20.50;79.88;98312.96;105503;1257;78376;-22
2023/07/30 05:27:15;;;;;;;2.70;2.10;;;;;;;20.56;79.29;98309.40;105401;1262;74528;-22
2023/07/30 05:29:43;;;;;;;2.50;1.90;;;;;;;20.43;79.43;98312.28;105504;1263;61507;-22
2023/07/30 05:32:12;;;;;;;2.50;2.10;;;;;;;20.22;80.00;98305.91;105562;1263;62508;-22
2023/07/30 05:34:40;;;;;;;2.20;1.70;;;;;;;20.06;80.82;98297.25;105361;1258;76919;-22
2023/07/30 05:37:08;;;;;;;11.00;5.20;;;;;;;20.49;80.85;98293.17;105341;1264;74991;-22
2023/07/30 05:39:36;;;;;;;6.00;3.70;;;;;;;21.01;78.79;98286.94;105421;1258;74332;-22
2023/07/30 05:42:04;;;;;;;5.50;2.60;;;;;;;21.12;78.78;98284.94;105120;1265;62445;-22
2023/07/30 05:44:32;;;;;;;5.10;2.80;;;;;;;21.11;78.83;98284.95;105243;1257;61172;-22
2023/07/30 05:46:59;;;;;;;4.80;2.70;;;;;;;21.05;79.45;98281.67;105400;1257;73074;-22
2023/07/30 05:49:27;;;;;;;2.80;1.90;;;;;;;20.97;80.21;98275.48;105300;1266;75789;-26
2023/07/30 05:51:55;;;;;;;3.40;2.30;;;;;;;21.43;79.65;98272.61;105217;1265;75003;-23
2023/07/30 05:54:23;;;;;;;3.80;2.70;;;;;;;21.89;77.86;98266.18;105331;1263;63949;-23
2023/07/30 05:56:51;;;;;;;8.90;4.40;;;;;;;22.01;77.01;98268.98;105325;1260;61501;-23
2023/07/30 05:59:19;;;;;;;7.90;4.50;;;;;;;22.03;77.53;98273.19;105177;1258;71312;-23
2023/07/30 06:01:50;;;;;;;4.10;2.70;;;;;;;22.03;77.18;98274.08;105570;1262;74566;-23
2023/07/30 06:04:18;;;;;;;3.10;2.10;;;;;;;21.99;77.25;98272.55;105428;1264;75846;-23
2023/07/30 06:06:45;;;;;;;3.40;1.80;;;;;;;22.00;78.51;98270.12;105401;1260;61080;-23
2023/07/30 06:09:13;;;;;;;3.10;1.60;;;;;;;22.65;77.46;98272.05;105546;1258;62510;-23
2023/07/30 06:11:41;;;;;;;3.00;2.20;;;;;;;23.29;74.08;98274.14;105330;1262;75555;-23
2023/07/30 06:14:09;;;;;;;3.50;1.90;;;;;;;23.45;73.82;98271.60;105242;1264;75825;-22
2023/07/30 06:16:37;;;;;;;2.80;2.20;;;;;;;23.44;73.48;98272.10;105401;1258;75216;-23
2023/07/30 06:19:05;;;;;;;2.30;2.10;;;;;;;23.43;73.47;98273.05;105359;1261;62325;-23
2023/07/30 06:21:33;;;;;;;2.60;2.00;;;;;;;23.22;73.80;98278.14;105456;1263;63061;-23
2023/07/30 06:24:01;;;;;;;2.00;1.60;;;;;;;22.97;73.30;98280.50;105195;1264;73071;-23
2023/07/30 06:26:29;;;;;;;2.10;1.60;;;;;;;23.00;73.07;98283.83;105450;1264;76738;-23
2023/07/30 06:28:57;;;;;;;3.20;2.20;;;;;;;22.94;73.18;98279.55;105204;1257;75825;-22
2023/07/30 06:31:25;;;;;;;3.50;2.40;;;;;;;23.15;73.02;98270.96;105338;1257;61085;-23
2023/07/30 06:33:53;;;;;;;3.90;2.00;;;;;;;23.12;72.92;98265.52;105099;1267;64152;-23
2023/07/30 06:36:21;;;;;;;4.10;2.20;;;;;;;22.53;72.04;98271.13;105478;1263;76934;-23
2023/07/30 06:38:49;;;;;;;2.80;2.10;;;;;;;22.12;74.42;98281.61;105381;1264;77003;-23
2023/07/30 06:41:17;;;;;;;4.50;2.10;;;;;;;22.06;74.13;98280.95;105401;1263;75590;-23
2023/07/30 06:43:45;;;;;;;2.50;1.90;;;;;;;22.16;73.84;98273.66;105449;1262;61023;-23
2023/07/30 06:46:13;;;;;;;5.60;2.40;;;;;;;22.24;73.21;98267.10;105430;1263;62803;-23
2023/07/30 06:48:41;;;;;;;3.80;2.30;;;;;;;22.04;73.68;98269.88;105353;1257;75528;-23
2023/07/30 06:51:09;;;;;;;4.80;2.70;;;;;;;21.77;74.22;98265.71;105181;1263;75341;-23
2023/07/30 06:53:38;;;;;;;3.40;2.50;;;;;;;21.73;75.54;98263.67;105251;1267;75620;-23
2023/07/30 06:56:06;;;;;;;6.60;2.50;;;;;;;21.74;75.86;98264.35;105512;1258;63246;-23
2023/07/30 06:58:33;;;;;;;3.00;2.20;;;;;;;22.17;74.64;98264.27;105290;1257;61148;-23
2023/07/30 07:01:04;;;;;;;3.60;2.60;;;;;;;22.60;73.36;98264.19;105425;1257;74144;-23
2023/07/30 07:03:31;;;;;;;5.40;3.00;;;;;;;22.77;72.92;98262.20;105427;1257;78410;-23
2023/07/30 07:06:00;;;;;;;5.00;3.10;;;;;;;22.56;72.14;98268.75;105383;1257;76062;-23
2023/07/30 07:08:28;;;;;;;3.90;3.00;;;;;;;22.49;71.54;98275.01;105378;1260;62562;-23
2023/07/30 07:10:56;;;;;;;5.30;2.80;;;;;;;22.29;72.33;98273.34;105413;1263;61458;-23
2023/07/30 07:13:24;;;;;;;6.10;2.70;;;;;;;22.37;73.41;98272.29;105272;1257;73118;-23
2023/07/30 07:15:52;;;;;;;3.50;2.70;;;;;;;22.87;70.67;98269.20;105105;1263;78816;-23
2023/07/30 07:18:20;;;;;;;3.00;2.70;;;;;;;22.91;69.10;98271.70;105171;1258;72805;-23
2023/07/30 07:20:48;;;;;;;3.80;3.10;;;;;;;22.88;69.55;98267.98;105217;1261;63027;-23
2023/07/30 07:23:15;;;;;;;5.40;2.70;;;;;;;22.86;70.36;98264.98;105388;1257;61172;-23
2023/07/30 07:25:44;;;;;;;3.60;2.90;;;;;;;22.90;70.98;98265.09;105360;1258;75277;-23
2023/07/30 07:28:11;;;;;;;5.30;3.40;;;;;;;22.93;70.76;98260.67;105177;1264;75555;-23
2023/07/30 07:30:39;;;;;;;7.50;3.50;;;;;;;23.00;71.04;98257.50;105321;1263;75521;-23
2023/07/30 07:33:11;;;;;;;5.60;3.40;;;;;;;23.15;70.77;98252.45;105243;1257;61151;-23
2023/07/30 07:35:40;;;;;;;8.60;2.90;;;;;;;23.14;70.17;98253.66;105431;1257;62516;-23
2023/07/30 07:38:08;;;;;;;3.80;3.40;;;;;;;23.24;69.87;98255.19;105338;1258;73206;-23
2023/07/30 07:40:39;;;;;;;5.60;3.00;;;;;;;23.89;68.98;98256.95;105253;1264;73351;-23
2023/07/30 07:43:08;;;;;;;4.50;3.40;;;;;;;24.09;66.94;98258.05;105264;1257;75273;-23
2023/07/30 07:45:36;;;;;;;4.00;3.30;;;;;;;24.05;66.85;98254.52;105190;1261;62336;-23
2023/07/30 07:48:04;;;;;;;5.20;3.30;;;;;;;23.87;67.31;98246.59;105355;1258;61128;-23
2023/07/30 07:50:32;;;;;;;4.70;3.10;;;;;;;24.17;67.01;98242.59;105541;1261;76968;-23
2023/07/30 07:53:00;;;;;;;5.50;2.70;;;;;;;24.35;65.27;98237.52;105418;1263;76797;-23
2023/07/30 07:55:28;;;;;;;4.70;2.90;;;;;;;24.21;65.46;98236.19;105360;1257;71458;-23
2023/07/30 07:57:56;;;;;;;4.10;3.00;;;;;;;24.08;65.78;98233.52;105571;1258;62915;-23
2023/07/30 08:00:24;;;;;;;4.00;2.70;;;;;;;23.97;66.17;98237.88;105381;1264;62839;-23
2023/07/30 08:02:51;;;;;;;3.90;3.30;;;;;;;23.81;66.39;98240.56;105413;1264;75503;-23
2023/07/30 08:05:19;;;;;;;5.00;2.70;;;;;;;23.86;67.44;98237.38;105384;1257;74412;-23
2023/07/30 08:07:47;;;;;;;5.70;3.00;;;;;;;23.89;66.46;98241.29;105172;1263;75619;-23
2023/07/30 08:10:15;;;;;;;3.70;1.90;;;;;;;24.03;66.35;98243.35;105394;1262;61763;-25
2023/07/30 08:12:44;;;;;;;6.30;3.00;;;;;;;24.12;66.88;98240.04;105538;1263;62797;-23
2023/07/30 08:15:12;;;;;;;4.70;3.20;;;;;;;24.27;66.11;98239.23;105380;1264;71754;-23
2023/07/30 08:17:39;;;;;;;3.00;2.50;;;;;;;24.28;65.79;98240.56;105422;1264;76782;-23
2023/07/30 08:20:08;;;;;;;2.70;2.40;;;;;;;24.48;65.83;98239.96;105429;1263;76780;-23
2023/07/30 08:22:36;;;;;;;5.70;3.30;;;;;;;24.51;64.14;98242.64;105255;1260;64082;-23
2023/07/30 08:25:05;;;;;;;3.50;2.70;;;;;;;24.53;64.82;98241.55;105143;1258;61053;-23
2023/07/30 08:27:33;;;;;;;3.80;2.70;;;;;;;24.72;64.83;98241.57;105039;1257;75253;-23
2023/07/30 08:30:00;;;;;;;4.70;2.60;;;;;;;24.97;64.42;98237.70;105428;1262;74423;-23
2023/07/30 08:32:28;;;;;;;4.10;2.20;;;;;;;25.13;64.25;98236.08;105508;1264;75156;-23
2023/07/30 08:34:56;;;;;;;2.90;2.10;;;;;;;25.18;63.92;98237.97;105504;1257;63089;-23
2023/07/30 08:37:24;;;;;;;4.30;1.90;;;;;;;25.34;61.54;98231.52;105115;1257;61086;-23
2023/07/30 08:39:52;;;;;;;5.00;2.00;;;;;;;25.13;60.73;98223.77;105326;1257;73131;-23
2023/07/30 08:42:20;;;;;;;2.80;1.90;;;;;;;25.31;60.55;98221.88;105481;1264;75776;-23
2023/07/30 08:44:48;;;;;;;3.10;1.80;;;;;;;25.49;59.67;98221.44;105381;1264;75216;-23
2023/07/30 08:47:15;;;;;;;2.60;1.40;;;;;;;25.54;58.11;98224.98;105158;1261;61029;-23
2023/07/30 08:49:43;;;;;;;11.80;2.30;;;;;;;25.46;57.83;98225.54;105151;1257;61462;-23
2023/07/30 08:52:11;;;;;;;3.00;2.00;;;;;;;25.68;58.69;98219.32;105133;1264;72634;-23
2023/07/30 08:54:39;;;;;;;2.90;1.80;;;;;;;25.85;57.03;98218.17;105154;1264;76613;-23
2023/07/30 08:57:07;;;;;;;5.20;1.70;;;;;;;25.90;57.35;98219.64;105434;1262;72846;-23
2023/07/30 08:59:42;;;;;;;2.60;2.10;;;;;;;26.02;55.96;98223.37;105560;1257;61728;-23
2023/07/30 09:02:13;;;;;;;2.30;1.40;;;;;;;26.14;55.87;98226.67;105263;1262;61189;-23
2023/07/30 09:04:41;;;;;;;3.10;1.90;;;;;;;26.08;55.99;98228.04;105257;1265;73954;-23
2023/07/30 09:07:10;;;;;;;2.00;1.70;;;;;;;26.44;55.95;98225.56;105237;1263;74637;-22
2023/07/30 09:09:37;;;;;;;2.30;1.70;;;;;;;26.83;55.19;98219.10;105251;1257;71483;-22
2023/07/30 09:12:13;;;;;;;1.80;1.50;;;;;;;27.15;55.07;98220.52;105255;1262;62387;-22
2023/07/30 09:14:44;;;;;;;3.60;1.50;;;;;;;27.35;52.73;98226.78;105276;1258;61104;-23
2023/07/30 09:17:19;;;;;;;2.80;1.60;;;;;;;27.48;51.76;98225.83;105390;1257;78006;-23
2023/07/30 09:19:47;;;;;;;2.80;1.70;;;;;;;27.43;52.11;98221.23;105098;1262;74427;-23
2023/07/30 09:22:26;;;;;;;1.80;1.40;;;;;;;27.45;51.64;98222.90;105260;1260;72678;-22
2023/07/30 09:24:55;;;;;;;1.70;1.60;;;;;;;27.47;50.78;98217.89;105134;1260;61139;-23
2023/07/30 09:27:26;;;;;;;2.20;1.70;;;;;;;27.59;51.20;98218.27;105274;1257;60994;-23
2023/07/30 09:29:57;;;;;;;2.30;1.40;;;;;;;27.59;52.05;98222.75;105227;1267;73951;-23
2023/07/30 09:32:32;;;;;;;2.60;1.60;;;;;;;27.62;50.84;98223.73;105035;1257;73214;-23
2023/07/30 09:35:07;;;;;;;2.70;1.40;;;;;;;27.46;50.46;98218.68;105162;1264;75265;-23
2023/07/30 09:37:39;;;;;;;1.80;1.50;;;;;;;27.52;50.31;98217.15;105221;1257;62851;-23
2023/07/30 09:40:09;;;;;;;1.70;1.60;;;;;;;27.51;50.26;98219.10;105266;1262;61188;-23
2023/07/30 09:42:39;;;;;;;2.20;1.50;;;;;;;27.47;49.90;98215.02;105281;1257;72749;-23
2023/07/30 09:45:18;;;;;;;2.10;1.50;;;;;;;27.41;49.81;98213.19;105556;1257;76857;-23
2023/07/30 09:47:49;;;;;;;5.30;1.40;;;;;;;27.49;49.47;98212.20;105126;1257;75442;-23
2023/07/30 09:50:18;;;;;;;1.90;1.40;;;;;;;27.71;49.60;98210.48;105116;1257;63392;-24
2023/07/30 09:52:45;;;;;;;2.40;1.50;;;;;;;28.06;49.01;98208.11;105157;1257;61477;-23
2023/07/30 09:55:13;;;;;;;3.60;1.80;;;;;;;28.47;47.95;98210.70;105245;1257;72115;-23
2023/07/30 09:57:41;;;;;;;1.60;1.20;;;;;;;28.60;46.43;98204.52;105110;1263;74435;-23
2023/07/30 10:00:10;;;;;;;1.70;1.30;;;;;;;28.18;47.26;98204.20;105102;1263;74125;-23
2023/07/30 10:02:40;;;;;;;2.90;1.50;;;;;;;28.14;47.45;98208.85;105185;1260;62154;-23
2023/07/30 10:05:14;;;;;;;1.40;1.30;;;;;;;28.01;48.00;98211.88;105438;1257;61463;-23
2023/07/30 10:07:46;;;;;;;3.00;1.50;;;;;;;28.23;47.37;98207.23;105218;1257;76367;-23
2023/07/30 10:10:14;;;;;;;3.10;1.50;;;;;;;28.12;47.44;98198.93;105298;1267;76545;-22
2023/07/30 10:12:42;;;;;;;1.80;1.50;;;;;;;28.30;46.47;98203.98;105289;1262;74545;-23
2023/07/30 10:15:10;;;;;;;1.90;1.30;;;;;;;28.32;45.57;98204.48;105015;1260;63970;-23
2023/07/30 10:17:37;;;;;;;2.40;1.20;;;;;;;28.23;46.47;98202.10;105000;1257;61180;-23
2023/07/30 10:20:26;;;;;;;1.90;1.40;;;;;;;27.79;47.38;98206.03;105025;1258;77740;-23
2023/07/30 10:22:54;;;;;;;1.60;1.10;;;;;;;27.34;48.10;98206.77;105044;1257;75720;-23
2023/07/30 10:25:27;;;;;;;2.00;1.40;;;;;;;26.92;49.27;98206.36;105062;1260;76608;-23
2023/07/30 10:27:56;;;;;;;2.90;1.20;;;;;;;26.89;49.88;98213.34;105126;1259;62525;-24
2023/07/30 10:30:31;;;;;;;1.50;1.30;;;;;;;26.77;50.79;98217.80;105263;1257;62841;-24
2023/07/30 10:33:03;;;;;;;1.70;1.50;;;;;;;26.29;52.27;98211.88;105191;1257;76328;-23
2023/07/30 10:35:48;;;;;;;1.90;1.50;;;;;;;26.49;53.24;98211.36;105289;1257;77178;-23
2023/07/30 10:38:17;;;;;;;3.00;1.40;;;;;;;26.89;53.72;98213.35;105257;1264;76290;-23
2023/07/30 10:41:04;;;;;;;3.30;1.40;;;;;;;27.07;51.81;98210.25;105381;1262;61494;-23
2023/07/30 10:43:35;;;;;;;1.10;1.00;;;;;;;27.08;52.02;98213.34;105354;1263;61228;-23
2023/07/30 10:46:03;;;;;;;2.80;1.30;;;;;;;27.49;50.79;98211.78;105278;1257;77198;-23
2023/07/30 10:48:33;;;;;;;2.80;1.30;;;;;;;27.09;50.73;98207.17;105486;1257;74445;-23
2023/07/30 10:51:03;;;;;;;2.00;1.20;;;;;;;26.94;51.21;98199.92;105273;1260;74971;-24
2023/07/30 10:53:31;;;;;;;1.30;1.10;;;;;;;26.66;51.50;98198.69;105277;1257;61192;-24
2023/07/30 10:56:01;;;;;;;3.10;1.20;;;;;;;26.10;53.97;98208.69;105282;1257;62729;-23
2023/07/30 10:58:33;;;;;;;2.10;1.30;;;;;;;25.86;54.79;98209.42;105236;1254;76364;-23
2023/07/30 11:01:03;;;;;;;2.30;1.20;;;;;;;25.29;56.54;98211.40;105143;1262;76765;-23
2023/07/30 11:03:34;;;;;;;2.70;1.20;;;;;;;24.90;58.04;98214.42;105579;1259;74540;-23
2023/07/30 11:06:02;;;;;;;1.40;0.90;;;;;;;24.86;58.56;98219.52;105446;1254;61117;-23
2023/07/30 11:08:37;;;;;;;2.00;1.30;;;;;;;24.61;59.58;98225.05;105335;1255;61078;-23
2023/07/30 11:11:06;;;;;;;1.70;1.40;;;;;;;24.57;60.01;98223.33;105267;1254;76314;-23
2023/07/30 11:13:36;;;;;;;2.70;1.40;;;;;;;24.59;60.21;98221.87;105561;1260;78688;-23
2023/07/30 11:16:05;;;;;;;1.50;1.30;;;;;;;24.87;58.99;98215.02;105233;1257;75060;-23
2023/07/30 11:18:34;;;;;;;1.90;1.50;;;;;;;25.16;57.76;98217.15;105213;1261;62049;-23
2023/07/30 11:21:07;;;;;;;2.90;1.40;;;;;;;25.33;57.57;98216.05;105268;1260;61133;-23
2023/07/30 11:23:36;;;;;;;8.50;1.50;;;;;;;25.34;58.12;98216.33;105237;1260;76448;-23
2023/07/30 11:26:05;;;;;;;1.80;1.30;;;;;;;25.21;58.05;98226.84;105249;1264;77157;-23
2023/07/30 11:28:38;;;;;;;5.30;1.40;;;;;;;24.99;58.31;98225.12;105267;1258;74794;-24
2023/07/30 11:31:09;;;;;;;;;;;;;;;24.94;58.62;98221.41;105262;1263;62713;-24
2023/07/30 11:33:42;;;;;;;4.30;1.40;;;;;;;24.67;60.08;98223.62;105637;1253;61106;-23
2023/07/30 11:36:19;;;;;;;3.60;1.80;;;;;;;24.56;61.43;98229.05;105573;1255;72679;-23
2023/07/30 11:38:47;;;;;;;5.70;1.50;;;;;;;24.56;60.20;98228.63;105555;1257;76859;-23